sensor_id;sensor_type;location;lat;lon;timestamp;noise_LAeq;noise_LA_min;noise_LA_max;noise_LA01;noise_LA95
65079;Laerm;52655;52.218;5.964;2023-05-10T00:01:45;38.0;34.5;46.9;;
65079;Laerm;52655;52.218;5.964;2023-05-10T00:03:45;38.8;34.7;54.0;;
65079;Laerm;52655;52.218;5.964;2023-05-10T00:05:45;38.8;34.3;54.0;;
65079;Laerm;52655;52.218;5.964;2023-05-10T00:07:45;40.2;34.4;56.3;;
65079;Laerm;52655;52.218;5.964;2023-05-10T00:09:45;36.5;33.5;46.6;;
65079;Laerm;52655;52.218;5.964;2023-05-10T00:11:45;39.8;32.9;55.4;;
65079;Laerm;52655;52.218;5.964;2023-05-10T00:13:45;35.1;32.8;42.4;;
65079;Laerm;52655;52.218;5.964;2023-05-10T00:15:45;39.3;31.8;58.0;;
65079;Laerm;52655;52.218;5.964;2023-05-10T00:17:45;33.5;31.9;40.6;;
65079;Laerm;52655;52.218;5.964;2023-05-10T00:19:45;32.8;31.2;38.8;;
65079;Laerm;52655;52.218;5.964;2023-05-10T00:21:46;32.4;30.7;37.5;;
65079;Laerm;52655;52.218;5.964;2023-05-10T00:23:46;31.9;30.4;35.9;;
65079;Laerm;52655;52.218;5.964;2023-05-10T00:25:46;40.2;30.4;58.8;;
65079;Laerm;52655;52.218;5.964;2023-05-10T00:27:46;31.9;30.4;38.1;;
65079;Laerm;52655;52.218;5.964;2023-05-10T00:29:46;39.7;29.9;58.1;;
65079;Laerm;52655;52.218;5.964;2023-05-10T00:31:46;33.0;30.0;47.6;;
65079;Laerm;52655;52.218;5.964;2023-05-10T00:33:46;34.6;30.0;50.8;;
65079;Laerm;52655;52.218;5.964;2023-05-10T00:35:46;31.2;29.5;39.5;;
65079;Laerm;52655;52.218;5.964;2023-05-10T00:37:46;31.6;30.0;47.5;;
65079;Laerm;52655;52.218;5.964;2023-05-10T00:39:46;37.8;29.7;56.6;;
65079;Laerm;52655;52.218;5.964;2023-05-10T00:41:46;33.2;29.4;48.5;;
65079;Laerm;52655;52.218;5.964;2023-05-10T00:43:46;31.2;29.8;37.8;;
65079;Laerm;52655;52.218;5.964;2023-05-10T00:45:46;34.2;29.8;44.2;;
65079;Laerm;52655;52.218;5.964;2023-05-10T00:47:46;30.6;29.0;41.1;;
65079;Laerm;52655;52.218;5.964;2023-05-10T00:49:46;39.3;29.9;60.0;;
65079;Laerm;52655;52.218;5.964;2023-05-10T00:51:46;30.5;29.2;36.1;;
65079;Laerm;52655;52.218;5.964;2023-05-10T00:53:46;31.4;29.3;39.5;;
65079;Laerm;52655;52.218;5.964;2023-05-10T00:55:46;40.0;29.3;56.8;;
65079;Laerm;52655;52.218;5.964;2023-05-10T00:57:47;30.4;29.0;39.7;;
65079;Laerm;52655;52.218;5.964;2023-05-10T00:59:47;30.8;29.4;38.4;;
65079;Laerm;52655;52.218;5.964;2023-05-10T01:01:47;37.1;29.1;55.0;;
65079;Laerm;52655;52.218;5.964;2023-05-10T01:03:47;37.8;29.2;55.8;;
65079;Laerm;52655;52.218;5.964;2023-05-10T01:05:47;36.6;29.3;52.8;;
65079;Laerm;52655;52.218;5.964;2023-05-10T01:07:47;38.2;29.9;55.8;;
65079;Laerm;52655;52.218;5.964;2023-05-10T01:09:47;32.8;28.9;47.4;;
65079;Laerm;52655;52.218;5.964;2023-05-10T01:11:47;33.0;29.0;47.6;;
65079;Laerm;52655;52.218;5.964;2023-05-10T01:13:50;30.0;29.0;37.1;;
65079;Laerm;52655;52.218;5.964;2023-05-10T01:15:47;30.5;29.2;33.0;;
65079;Laerm;52655;52.218;5.964;2023-05-10T01:17:47;30.0;29.0;34.2;;
65079;Laerm;52655;52.218;5.964;2023-05-10T01:19:47;36.2;29.1;52.6;;
65079;Laerm;52655;52.218;5.964;2023-05-10T01:22:14;37.8;29.2;56.0;;
65079;Laerm;52655;52.218;5.964;2023-05-10T01:27:55;30.0;28.8;33.3;;
65079;Laerm;52655;52.218;5.964;2023-05-10T01:31:02;29.9;28.8;33.3;;
65079;Laerm;52655;52.218;5.964;2023-05-10T01:33:01;36.7;28.8;47.2;;
65079;Laerm;52655;52.218;5.964;2023-05-10T01:33:02;36.7;28.8;47.2;;
65079;Laerm;52655;52.218;5.964;2023-05-10T01:34:25;37.7;30.1;49.5;;
65079;Laerm;52655;52.218;5.964;2023-05-10T01:36:03;35.3;29.2;51.3;;
65079;Laerm;52655;52.218;5.964;2023-05-10T01:37:33;29.9;29.0;39.0;;
65079;Laerm;52655;52.218;5.964;2023-05-10T01:39:20;30.4;29.0;33.8;;
65079;Laerm;52655;52.218;5.964;2023-05-10T01:40:52;30.5;29.2;36.3;;
65079;Laerm;52655;52.218;5.964;2023-05-10T01:42:50;29.8;28.7;35.6;;
65079;Laerm;52655;52.218;5.964;2023-05-10T01:44:16;30.2;28.6;38.3;;
65079;Laerm;52655;52.218;5.964;2023-05-10T01:45:50;30.4;29.5;34.6;;
65079;Laerm;52655;52.218;5.964;2023-05-10T01:47:50;30.4;29.0;35.0;;
65079;Laerm;52655;52.218;5.964;2023-05-10T01:49:49;30.0;28.8;35.5;;
65079;Laerm;52655;52.218;5.964;2023-05-10T01:51:48;30.5;28.8;35.9;;
65079;Laerm;52655;52.218;5.964;2023-05-10T01:53:48;34.9;29.1;51.7;;
65079;Laerm;52655;52.218;5.964;2023-05-10T01:55:49;31.2;29.0;40.0;;
65079;Laerm;52655;52.218;5.964;2023-05-10T01:57:50;30.0;29.0;32.3;;
65079;Laerm;52655;52.218;5.964;2023-05-10T01:59:49;30.7;28.8;35.9;;
65079;Laerm;52655;52.218;5.964;2023-05-10T02:01:48;32.6;29.0;48.6;;
65079;Laerm;52655;52.218;5.964;2023-05-10T02:03:49;30.5;29.4;35.2;;
65079;Laerm;52655;52.218;5.964;2023-05-10T02:05:48;36.9;29.5;56.6;;
65079;Laerm;52655;52.218;5.964;2023-05-10T02:07:48;36.9;29.0;55.8;;
65079;Laerm;52655;52.218;5.964;2023-05-10T02:09:49;34.4;29.0;50.8;;
65079;Laerm;52655;52.218;5.964;2023-05-10T02:11:49;30.2;29.0;33.1;;
65079;Laerm;52655;52.218;5.964;2023-05-10T02:13:51;36.5;28.9;55.0;;
65079;Laerm;52655;52.218;5.964;2023-05-10T02:15:49;29.5;28.5;31.9;;
65079;Laerm;52655;52.218;5.964;2023-05-10T02:17:49;30.4;28.9;33.7;;
65079;Laerm;52655;52.218;5.964;2023-05-10T02:19:49;39.3;28.9;58.0;;
65079;Laerm;52655;52.218;5.964;2023-05-10T02:21:49;31.6;28.9;39.0;;
65079;Laerm;52655;52.218;5.964;2023-05-10T02:23:50;30.2;28.8;39.9;;
65079;Laerm;52655;52.218;5.964;2023-05-10T02:25:49;39.1;29.0;56.0;;
65079;Laerm;52655;52.218;5.964;2023-05-10T02:27:49;42.3;28.9;59.0;;
65079;Laerm;52655;52.218;5.964;2023-05-10T02:29:49;42.8;29.2;59.0;;
65079;Laerm;52655;52.218;5.964;2023-05-10T02:31:49;43.4;28.9;58.0;;
65079;Laerm;52655;52.218;5.964;2023-05-10T02:33:49;44.0;28.9;60.0;;
65079;Laerm;52655;52.218;5.964;2023-05-10T02:35:50;43.5;28.7;60.0;;
65079;Laerm;52655;52.218;5.964;2023-05-10T02:37:49;48.9;31.3;63.4;;
65079;Laerm;52655;52.218;5.964;2023-05-10T02:39:50;47.4;29.6;64.0;;
65079;Laerm;52655;52.218;5.964;2023-05-10T02:41:50;46.9;29.2;63.0;;
65079;Laerm;52655;52.218;5.964;2023-05-10T02:43:50;48.1;29.2;62.0;;
65079;Laerm;52655;52.218;5.964;2023-05-10T02:45:50;45.7;29.2;62.0;;
65079;Laerm;52655;52.218;5.964;2023-05-10T02:47:50;45.2;29.4;63.0;;
65079;Laerm;52655;52.218;5.964;2023-05-10T02:49:50;46.0;29.6;63.0;;
65079;Laerm;52655;52.218;5.964;2023-05-10T02:51:51;45.7;29.2;63.0;;
65079;Laerm;52655;52.218;5.964;2023-05-10T02:53:50;47.4;30.1;64.0;;
65079;Laerm;52655;52.218;5.964;2023-05-10T02:55:53;48.2;29.9;64.0;;
65079;Laerm;52655;52.218;5.964;2023-05-10T02:58:01;47.7;29.6;63.0;;
65079;Laerm;52655;52.218;5.964;2023-05-10T02:59:50;48.4;30.3;65.0;;
65079;Laerm;52655;52.218;5.964;2023-05-10T03:01:50;48.9;30.1;63.0;;
65079;Laerm;52655;52.218;5.964;2023-05-10T03:03:50;49.7;30.8;66.0;;
65079;Laerm;52655;52.218;5.964;2023-05-10T03:05:50;50.5;29.8;65.0;;
65079;Laerm;52655;52.218;5.964;2023-05-10T03:07:50;50.5;30.6;65.0;;
65079;Laerm;52655;52.218;5.964;2023-05-10T03:09:50;51.2;30.8;65.0;;
65079;Laerm;52655;52.218;5.964;2023-05-10T03:12:14;51.1;31.1;63.0;;
65079;Laerm;52655;52.218;5.964;2023-05-10T03:14:16;51.5;32.1;65.0;;
65079;Laerm;52655;52.218;5.964;2023-05-10T03:16:07;52.5;32.1;67.0;;
65079;Laerm;52655;52.218;5.964;2023-05-10T03:18:01;52.0;32.9;64.0;;
65079;Laerm;52655;52.218;5.964;2023-05-10T03:19:53;52.2;32.4;64.0;;
65079;Laerm;52655;52.218;5.964;2023-05-10T03:21:51;53.2;32.0;71.0;;
65079;Laerm;52655;52.218;5.964;2023-05-10T03:23:59;51.5;33.1;66.0;;
65079;Laerm;52655;52.218;5.964;2023-05-10T03:25:51;51.8;33.1;66.0;;
65079;Laerm;52655;52.218;5.964;2023-05-10T03:27:51;48.4;34.1;63.0;;
65079;Laerm;52655;52.218;5.964;2023-05-10T03:29:51;49.9;34.6;64.0;;
65079;Laerm;52655;52.218;5.964;2023-05-10T03:31:51;52.3;33.9;67.0;;
65079;Laerm;52655;52.218;5.964;2023-05-10T03:33:51;52.3;35.4;65.0;;
65079;Laerm;52655;52.218;5.964;2023-05-10T03:35:51;51.5;34.9;68.0;;
65079;Laerm;52655;52.218;5.964;2023-05-10T03:37:51;51.5;34.4;66.0;;
65079;Laerm;52655;52.218;5.964;2023-05-10T03:39:51;49.7;34.4;64.0;;
65079;Laerm;52655;52.218;5.964;2023-05-10T03:41:51;46.5;33.3;59.0;;
65079;Laerm;52655;52.218;5.964;2023-05-10T03:43:51;46.3;32.4;59.0;;
65079;Laerm;52655;52.218;5.964;2023-05-10T03:45:51;44.5;32.5;60.3;;
65079;Laerm;52655;52.218;5.964;2023-05-10T03:47:51;44.0;33.1;59.0;;
65079;Laerm;52655;52.218;5.964;2023-05-10T03:49:51;43.9;34.0;55.8;;
65079;Laerm;52655;52.218;5.964;2023-05-10T03:51:51;42.9;31.7;55.0;;
65079;Laerm;52655;52.218;5.964;2023-05-10T03:53:51;44.4;32.6;59.0;;
65079;Laerm;52655;52.218;5.964;2023-05-10T03:55:52;44.9;33.8;57.0;;
65079;Laerm;52655;52.218;5.964;2023-05-10T03:57:52;41.6;32.6;57.0;;
65079;Laerm;52655;52.218;5.964;2023-05-10T03:59:52;44.7;32.5;57.9;;
65079;Laerm;52655;52.218;5.964;2023-05-10T04:01:52;45.9;32.9;60.0;;
65079;Laerm;52655;52.218;5.964;2023-05-10T04:03:52;44.4;32.1;58.0;;
65079;Laerm;52655;52.218;5.964;2023-05-10T04:05:58;47.1;33.9;59.3;;
65079;Laerm;52655;52.218;5.964;2023-05-10T04:07:52;40.0;32.5;56.0;;
65079;Laerm;52655;52.218;5.964;2023-05-10T04:09:52;38.6;32.2;46.6;;
65079;Laerm;52655;52.218;5.964;2023-05-10T04:11:52;41.6;33.0;56.9;;
65079;Laerm;52655;52.218;5.964;2023-05-10T04:13:52;40.8;31.6;56.0;;
65079;Laerm;52655;52.218;5.964;2023-05-10T04:15:52;43.5;32.3;56.0;;
65079;Laerm;52655;52.218;5.964;2023-05-10T04:17:52;39.3;32.2;51.3;;
65079;Laerm;52655;52.218;5.964;2023-05-10T04:19:52;38.2;32.3;57.3;;
65079;Laerm;52655;52.218;5.964;2023-05-10T04:21:52;37.3;31.4;45.5;;
65079;Laerm;52655;52.218;5.964;2023-05-10T04:23:52;40.9;32.0;55.7;;
65079;Laerm;52655;52.218;5.964;2023-05-10T04:25:52;44.3;33.4;56.7;;
65079;Laerm;52655;52.218;5.964;2023-05-10T04:27:52;41.4;32.1;57.3;;
65079;Laerm;52655;52.218;5.964;2023-05-10T04:29:52;44.7;33.3;58.1;;
65079;Laerm;52655;52.218;5.964;2023-05-10T04:31:52;42.3;31.8;58.0;;
65079;Laerm;52655;52.218;5.964;2023-05-10T04:33:53;44.9;31.9;64.0;;
65079;Laerm;52655;52.218;5.964;2023-05-10T04:36:37;44.6;33.2;57.8;;
65079;Laerm;52655;52.218;5.964;2023-05-10T04:38:16;41.9;33.4;53.1;;
65079;Laerm;52655;52.218;5.964;2023-05-10T04:39:55;44.9;33.1;55.7;;
65079;Laerm;52655;52.218;5.964;2023-05-10T04:41:53;43.2;32.3;56.6;;
65079;Laerm;52655;52.218;5.964;2023-05-10T04:43:53;42.6;32.0;56.7;;
65079;Laerm;52655;52.218;5.964;2023-05-10T04:45:53;42.8;32.8;58.6;;
65079;Laerm;52655;52.218;5.964;2023-05-10T04:47:53;44.3;33.0;57.7;;
65079;Laerm;52655;52.218;5.964;2023-05-10T04:49:53;45.5;34.3;56.6;;
65079;Laerm;52655;52.218;5.964;2023-05-10T04:51:53;44.0;32.9;57.0;;
65079;Laerm;52655;52.218;5.964;2023-05-10T04:53:53;45.3;34.3;57.8;;
65079;Laerm;52655;52.218;5.964;2023-05-10T04:55:53;42.2;34.3;55.1;;
65079;Laerm;52655;52.218;5.964;2023-05-10T04:57:53;41.4;32.3;57.3;;
65079;Laerm;52655;52.218;5.964;2023-05-10T04:59:53;44.4;34.1;57.5;;
65079;Laerm;52655;52.218;5.964;2023-05-10T05:01:53;41.6;34.0;57.0;;
65079;Laerm;52655;52.218;5.964;2023-05-10T05:03:53;42.8;33.3;56.9;;
65079;Laerm;52655;52.218;5.964;2023-05-10T05:05:53;44.9;33.3;58.5;;
65079;Laerm;52655;52.218;5.964;2023-05-10T05:07:53;43.8;34.2;56.6;;
65079;Laerm;52655;52.218;5.964;2023-05-10T05:09:54;44.9;33.4;56.2;;
65079;Laerm;52655;52.218;5.964;2023-05-10T05:11:54;44.7;34.2;56.2;;
65079;Laerm;52655;52.218;5.964;2023-05-10T05:13:54;43.1;34.3;54.9;;
65079;Laerm;52655;52.218;5.964;2023-05-10T05:15:54;42.2;34.4;56.3;;
65079;Laerm;52655;52.218;5.964;2023-05-10T05:17:54;41.8;33.0;53.9;;
65079;Laerm;52655;52.218;5.964;2023-05-10T05:19:54;43.8;34.5;58.1;;
65079;Laerm;52655;52.218;5.964;2023-05-10T05:21:54;39.3;32.7;51.2;;
65079;Laerm;52655;52.218;5.964;2023-05-10T05:23:54;45.9;34.9;62.5;;
65079;Laerm;52655;52.218;5.964;2023-05-10T05:25:54;46.4;34.4;62.2;;
65079;Laerm;52655;52.218;5.964;2023-05-10T05:27:54;48.4;38.2;56.5;;
65079;Laerm;52655;52.218;5.964;2023-05-10T05:29:54;46.2;38.5;62.3;;
65079;Laerm;52655;52.218;5.964;2023-05-10T05:31:54;45.8;39.8;55.4;;
65079;Laerm;52655;52.218;5.964;2023-05-10T05:33:54;48.4;38.9;56.9;;
65079;Laerm;52655;52.218;5.964;2023-05-10T05:35:54;45.8;36.5;55.2;;
65079;Laerm;52655;52.218;5.964;2023-05-10T05:37:54;46.0;37.0;57.1;;
65079;Laerm;52655;52.218;5.964;2023-05-10T05:39:54;45.7;34.8;56.6;;
65079;Laerm;52655;52.218;5.964;2023-05-10T05:41:54;46.0;35.1;56.3;;
65079;Laerm;52655;52.218;5.964;2023-05-10T05:43:55;44.5;36.4;56.6;;
65079;Laerm;52655;52.218;5.964;2023-05-10T05:45:55;47.2;40.3;62.8;;
65079;Laerm;52655;52.218;5.964;2023-05-10T05:47:55;46.2;38.5;56.1;;
65079;Laerm;52655;52.218;5.964;2023-05-10T05:49:55;45.7;37.3;61.8;;
65079;Laerm;52655;52.218;5.964;2023-05-10T05:51:58;46.9;36.4;60.0;;
65079;Laerm;52655;52.218;5.964;2023-05-10T05:53:55;46.7;36.2;55.4;;
65079;Laerm;52655;52.218;5.964;2023-05-10T05:55:57;46.4;37.1;56.0;;
65079;Laerm;52655;52.218;5.964;2023-05-10T05:57:55;44.9;37.0;57.4;;
65079;Laerm;52655;52.218;5.964;2023-05-10T05:59:55;45.9;37.8;57.9;;
65079;Laerm;52655;52.218;5.964;2023-05-10T06:01:55;48.2;36.8;59.8;;
65079;Laerm;52655;52.218;5.964;2023-05-10T06:03:55;47.3;38.8;56.0;;
65079;Laerm;52655;52.218;5.964;2023-05-10T06:05:55;47.2;36.2;61.4;;
65079;Laerm;52655;52.218;5.964;2023-05-10T06:07:55;44.0;36.3;55.5;;
65079;Laerm;52655;52.218;5.964;2023-05-10T06:09:55;47.7;36.5;59.7;;
65079;Laerm;52655;52.218;5.964;2023-05-10T06:11:55;46.2;36.5;56.4;;
65079;Laerm;52655;52.218;5.964;2023-05-10T06:13:55;47.0;38.1;57.5;;
65079;Laerm;52655;52.218;5.964;2023-05-10T06:15:55;51.9;37.3;58.7;;
65079;Laerm;52655;52.218;5.964;2023-05-10T06:17:55;46.6;39.1;54.9;;
65079;Laerm;52655;52.218;5.964;2023-05-10T06:19:55;47.0;39.3;57.4;;
65079;Laerm;52655;52.218;5.964;2023-05-10T06:21:56;48.4;36.9;64.0;;
65079;Laerm;52655;52.218;5.964;2023-05-10T06:23:56;48.7;38.3;63.0;;
65079;Laerm;52655;52.218;5.964;2023-05-10T06:25:56;48.4;38.7;65.0;;
65079;Laerm;52655;52.218;5.964;2023-05-10T06:27:56;47.4;38.3;57.4;;
65079;Laerm;52655;52.218;5.964;2023-05-10T06:29:56;46.9;37.7;56.9;;
65079;Laerm;52655;52.218;5.964;2023-05-10T06:31:56;46.2;39.1;55.5;;
65079;Laerm;52655;52.218;5.964;2023-05-10T06:33:56;45.0;38.2;60.7;;
65079;Laerm;52655;52.218;5.964;2023-05-10T06:35:56;45.4;36.9;54.5;;
65079;Laerm;52655;52.218;5.964;2023-05-10T06:37:56;45.7;37.1;56.3;;
65079;Laerm;52655;52.218;5.964;2023-05-10T06:39:56;46.2;36.3;56.3;;
65079;Laerm;52655;52.218;5.964;2023-05-10T06:41:56;49.2;40.0;56.6;;
65079;Laerm;52655;52.218;5.964;2023-05-10T06:43:56;47.2;39.9;55.2;;
65079;Laerm;52655;52.218;5.964;2023-05-10T06:45:56;46.4;37.8;55.3;;
65079;Laerm;52655;52.218;5.964;2023-05-10T06:47:56;45.6;37.3;57.4;;
65079;Laerm;52655;52.218;5.964;2023-05-10T06:49:56;44.0;37.9;52.5;;
65079;Laerm;52655;52.218;5.964;2023-05-10T06:51:56;44.2;35.6;53.4;;
65079;Laerm;52655;52.218;5.964;2023-05-10T06:53:56;46.5;37.7;58.3;;
65079;Laerm;52655;52.218;5.964;2023-05-10T06:55:56;44.0;37.3;54.8;;
65079;Laerm;52655;52.218;5.964;2023-05-10T06:57:57;50.4;38.1;67.2;;
65079;Laerm;52655;52.218;5.964;2023-05-10T06:59:57;45.2;36.5;55.4;;
65079;Laerm;52655;52.218;5.964;2023-05-10T07:01:57;45.7;35.7;59.4;;
65079;Laerm;52655;52.218;5.964;2023-05-10T07:03:57;42.6;35.8;55.6;;
65079;Laerm;52655;52.218;5.964;2023-05-10T07:06:00;47.3;35.3;57.1;;
65079;Laerm;52655;52.218;5.964;2023-05-10T07:07:57;50.5;38.2;64.7;;
65079;Laerm;52655;52.218;5.964;2023-05-10T07:09:57;46.9;38.1;56.0;;
65079;Laerm;52655;52.218;5.964;2023-05-10T07:11:57;45.6;38.7;57.1;;
65079;Laerm;52655;52.218;5.964;2023-05-10T07:13:57;46.6;39.1;54.8;;
65079;Laerm;52655;52.218;5.964;2023-05-10T07:15:57;46.7;40.7;55.5;;
65079;Laerm;52655;52.218;5.964;2023-05-10T07:17:57;45.7;38.3;55.5;;
65079;Laerm;52655;52.218;5.964;2023-05-10T07:19:57;46.1;38.0;58.8;;
65079;Laerm;52655;52.218;5.964;2023-05-10T07:21:57;48.9;39.3;60.5;;
65079;Laerm;52655;52.218;5.964;2023-05-10T07:23:57;48.6;41.0;56.0;;
65079;Laerm;52655;52.218;5.964;2023-05-10T07:25:57;47.2;39.3;55.6;;
65079;Laerm;52655;52.218;5.964;2023-05-10T07:27:57;48.5;39.5;62.4;;
65079;Laerm;52655;52.218;5.964;2023-05-10T07:29:57;52.0;39.0;63.5;;
65079;Laerm;52655;52.218;5.964;2023-05-10T07:31:57;51.7;37.0;64.1;;
65079;Laerm;52655;52.218;5.964;2023-05-10T07:33:58;49.0;38.9;58.7;;
65079;Laerm;52655;52.218;5.964;2023-05-10T07:35:58;46.4;37.8;58.8;;
65079;Laerm;52655;52.218;5.964;2023-05-10T07:37:58;47.0;37.3;58.6;;
65079;Laerm;52655;52.218;5.964;2023-05-10T07:39:58;47.6;36.5;62.5;;
65079;Laerm;52655;52.218;5.964;2023-05-10T07:41:58;48.3;37.0;59.9;;
65079;Laerm;52655;52.218;5.964;2023-05-10T07:43:58;47.2;38.2;60.9;;
65079;Laerm;52655;52.218;5.964;2023-05-10T07:47:58;48.7;38.5;57.9;;
65079;Laerm;52655;52.218;5.964;2023-05-10T07:49:58;48.0;36.8;59.2;;
65079;Laerm;52655;52.218;5.964;2023-05-10T07:53:58;49.4;40.2;63.5;;
65079;Laerm;52655;52.218;5.964;2023-05-10T07:55:58;50.5;38.7;64.0;;
65079;Laerm;52655;52.218;5.964;2023-05-10T07:57:58;52.7;42.2;61.7;;
65079;Laerm;52655;52.218;5.964;2023-05-10T07:59:58;53.8;44.9;59.9;;
65079;Laerm;52655;52.218;5.964;2023-05-10T08:01:58;52.1;44.5;59.8;;
65079;Laerm;52655;52.218;5.964;2023-05-10T08:03:58;54.9;46.2;62.1;;
65079;Laerm;52655;52.218;5.964;2023-05-10T08:05:58;53.0;47.7;59.8;;
65079;Laerm;52655;52.218;5.964;2023-05-10T08:07:58;49.6;40.0;58.1;;
65079;Laerm;52655;52.218;5.964;2023-05-10T08:09:59;47.7;39.3;60.8;;
65079;Laerm;52655;52.218;5.964;2023-05-10T08:11:59;46.7;36.8;60.0;;
65079;Laerm;52655;52.218;5.964;2023-05-10T08:15:59;50.0;35.9;59.6;;
65079;Laerm;52655;52.218;5.964;2023-05-10T08:18:44;44.5;35.4;53.3;;
65079;Laerm;52655;52.218;5.964;2023-05-10T08:23:40;45.5;36.0;55.2;;
65079;Laerm;52655;52.218;5.964;2023-05-10T08:25:18;45.9;36.6;55.3;;
65079;Laerm;52655;52.218;5.964;2023-05-10T08:28:36;50.3;36.0;62.2;;
65079;Laerm;52655;52.218;5.964;2023-05-10T08:31:59;51.5;38.9;63.0;;
65079;Laerm;52655;52.218;5.964;2023-05-10T08:35:17;48.7;39.0;58.8;;
65079;Laerm;52655;52.218;5.964;2023-05-10T08:38:34;47.2;37.3;56.0;;
65079;Laerm;52655;52.218;5.964;2023-05-10T08:42:05;46.4;36.2;56.9;;
65079;Laerm;52655;52.218;5.964;2023-05-10T08:45:17;44.2;34.8;55.8;;
65079;Laerm;52655;52.218;5.964;2023-05-10T08:48:02;46.9;37.0;58.4;;
65079;Laerm;52655;52.218;5.964;2023-05-10T08:50:00;49.6;36.5;62.0;;
65079;Laerm;52655;52.218;5.964;2023-05-10T08:52:02;48.4;37.4;61.8;;
65079;Laerm;52655;52.218;5.964;2023-05-10T08:56:00;44.9;36.8;63.8;;
65079;Laerm;52655;52.218;5.964;2023-05-10T08:58:00;47.0;37.0;56.5;;
65079;Laerm;52655;52.218;5.964;2023-05-10T09:00:00;47.6;37.9;55.4;;
65079;Laerm;52655;52.218;5.964;2023-05-10T09:02:00;48.0;37.1;62.9;;
65079;Laerm;52655;52.218;5.964;2023-05-10T09:04:00;49.4;37.6;64.0;;
65079;Laerm;52655;52.218;5.964;2023-05-10T09:06:00;45.9;35.9;56.9;;
65079;Laerm;52655;52.218;5.964;2023-05-10T09:08:00;45.3;37.9;57.1;;
65079;Laerm;52655;52.218;5.964;2023-05-10T09:10:00;46.0;37.3;57.1;;
65079;Laerm;52655;52.218;5.964;2023-05-10T09:12:00;46.5;37.5;58.1;;
65079;Laerm;52655;52.218;5.964;2023-05-10T09:14:00;44.5;35.5;54.8;;
65079;Laerm;52655;52.218;5.964;2023-05-10T09:16:01;45.7;36.6;60.8;;
65079;Laerm;52655;52.218;5.964;2023-05-10T09:18:01;46.4;35.4;68.9;;
65079;Laerm;52655;52.218;5.964;2023-05-10T09:20:01;44.5;34.4;53.3;;
65079;Laerm;52655;52.218;5.964;2023-05-10T09:24:03;46.3;35.5;58.2;;
65079;Laerm;52655;52.218;5.964;2023-05-10T09:26:46;44.1;36.4;54.8;;
65079;Laerm;52655;52.218;5.964;2023-05-10T09:30:03;47.7;35.5;59.3;;
65079;Laerm;52655;52.218;5.964;2023-05-10T09:33:20;46.6;35.7;59.6;;
65079;Laerm;52655;52.218;5.964;2023-05-10T09:36:49;45.5;36.6;58.6;;
65079;Laerm;52655;52.218;5.964;2023-05-10T09:41:42;46.9;37.0;60.3;;
65079;Laerm;52655;52.218;5.964;2023-05-10T09:43:19;47.7;36.1;62.2;;
65079;Laerm;52655;52.218;5.964;2023-05-10T09:48:15;45.1;36.6;56.5;;
65079;Laerm;52655;52.218;5.964;2023-05-10T09:50:02;47.6;37.6;67.4;;
65079;Laerm;52655;52.218;5.964;2023-05-10T09:53:19;45.7;38.1;58.2;;
65079;Laerm;52655;52.218;5.964;2023-05-10T09:56:04;47.7;39.5;58.4;;
65079;Laerm;52655;52.218;5.964;2023-05-10T09:58:02;46.9;37.1;54.1;;
65079;Laerm;52655;52.218;5.964;2023-05-10T10:00:02;46.9;37.1;57.1;;
65079;Laerm;52655;52.218;5.964;2023-05-10T10:02:02;49.6;38.2;62.0;;
65079;Laerm;52655;52.218;5.964;2023-05-10T10:04:02;51.1;39.8;63.6;;
65079;Laerm;52655;52.218;5.964;2023-05-10T10:06:02;48.1;39.6;58.0;;
65079;Laerm;52655;52.218;5.964;2023-05-10T10:08:02;47.3;39.4;59.1;;
65079;Laerm;52655;52.218;5.964;2023-05-10T10:10:02;46.9;39.3;61.3;;
65079;Laerm;52655;52.218;5.964;2023-05-10T10:12:02;46.7;36.3;56.8;;
65079;Laerm;52655;52.218;5.964;2023-05-10T10:14:02;45.7;36.5;56.6;;
65079;Laerm;52655;52.218;5.964;2023-05-10T10:16:02;46.4;36.5;57.6;;
65079;Laerm;52655;52.218;5.964;2023-05-10T10:18:02;46.9;37.8;57.3;;
65079;Laerm;52655;52.218;5.964;2023-05-10T10:20:02;47.4;37.6;63.7;;
65079;Laerm;52655;52.218;5.964;2023-05-10T10:22:02;47.0;37.9;55.8;;
65079;Laerm;52655;52.218;5.964;2023-05-10T10:24:03;45.8;38.3;54.4;;
65079;Laerm;52655;52.218;5.964;2023-05-10T10:26:02;47.9;37.5;58.6;;
65079;Laerm;52655;52.218;5.964;2023-05-10T10:28:05;50.0;37.3;61.8;;
65079;Laerm;52655;52.218;5.964;2023-05-10T10:32:07;51.3;37.0;70.6;;
65079;Laerm;52655;52.218;5.964;2023-05-10T10:34:23;48.9;36.1;64.0;;
65079;Laerm;52655;52.218;5.964;2023-05-10T10:36:03;46.1;36.0;56.4;;
65079;Laerm;52655;52.218;5.964;2023-05-10T10:38:03;48.9;41.4;64.0;;
65079;Laerm;52655;52.218;5.964;2023-05-10T10:40:11;49.1;40.7;61.2;;
65079;Laerm;52655;52.218;5.964;2023-05-10T10:42:03;50.7;40.7;58.9;;
65079;Laerm;52655;52.218;5.964;2023-05-10T10:44:33;47.9;40.8;58.4;;
65079;Laerm;52655;52.218;5.964;2023-05-10T10:46:17;46.7;41.4;54.1;;
65079;Laerm;52655;52.218;5.964;2023-05-10T10:48:20;46.9;40.8;58.4;;
65079;Laerm;52655;52.218;5.964;2023-05-10T10:50:04;47.0;41.4;56.5;;
65079;Laerm;52655;52.218;5.964;2023-05-10T10:52:31;49.5;42.3;63.7;;
65079;Laerm;52655;52.218;5.964;2023-05-10T10:54:09;49.9;43.9;67.0;;
65079;Laerm;52655;52.218;5.964;2023-05-10T10:56:11;49.8;43.6;57.9;;
65079;Laerm;52655;52.218;5.964;2023-05-10T10:58:03;48.5;43.1;58.6;;
65079;Laerm;52655;52.218;5.964;2023-05-10T11:00:21;47.7;42.3;57.1;;
65079;Laerm;52655;52.218;5.964;2023-05-10T11:02:03;48.0;38.4;60.0;;
65079;Laerm;52655;52.218;5.964;2023-05-10T11:04:18;49.2;37.2;64.4;;
65079;Laerm;52655;52.218;5.964;2023-05-10T11:06:04;47.7;39.8;60.3;;
65079;Laerm;52655;52.218;5.964;2023-05-10T11:08:08;46.7;39.4;59.0;;
65079;Laerm;52655;52.218;5.964;2023-05-10T11:10:04;47.1;38.1;58.4;;
65079;Laerm;52655;52.218;5.964;2023-05-10T11:12:07;46.7;37.9;54.2;;
65079;Laerm;52655;52.218;5.964;2023-05-10T11:14:04;46.9;39.4;55.4;;
65079;Laerm;52655;52.218;5.964;2023-05-10T11:16:12;46.6;39.3;57.3;;
65079;Laerm;52655;52.218;5.964;2023-05-10T11:18:17;47.2;40.6;56.4;;
65079;Laerm;52655;52.218;5.964;2023-05-10T11:20:04;47.7;39.2;68.0;;
65079;Laerm;52655;52.218;5.964;2023-05-10T11:22:12;46.9;39.9;55.7;;
65079;Laerm;52655;52.218;5.964;2023-05-10T11:24:09;46.7;39.5;68.0;;
65079;Laerm;52655;52.218;5.964;2023-05-10T11:26:06;44.9;36.1;59.3;;
65079;Laerm;52655;52.218;5.964;2023-05-10T11:28:04;47.4;38.1;62.7;;
65079;Laerm;52655;52.218;5.964;2023-05-10T11:30:04;48.1;37.6;67.0;;
65079;Laerm;52655;52.218;5.964;2023-05-10T11:32:49;48.2;37.1;63.0;;
65079;Laerm;52655;52.218;5.964;2023-05-10T11:34:28;44.7;36.5;58.6;;
65079;Laerm;52655;52.218;5.964;2023-05-10T11:36:10;45.7;36.8;62.3;;
65079;Laerm;52655;52.218;5.964;2023-05-10T11:38:05;54.8;35.8;69.4;;
65079;Laerm;52655;52.218;5.964;2023-05-10T11:40:04;45.3;36.9;58.6;;
65079;Laerm;52655;52.218;5.964;2023-05-10T11:42:05;45.6;38.6;55.3;;
65079;Laerm;52655;52.218;5.964;2023-05-10T11:44:05;46.4;39.0;59.0;;
65079;Laerm;52655;52.218;5.964;2023-05-10T11:46:05;47.8;37.2;60.0;;
65079;Laerm;52655;52.218;5.964;2023-05-10T11:48:05;49.7;38.7;62.2;;
65079;Laerm;52655;52.218;5.964;2023-05-10T11:50:05;50.0;39.3;63.2;;
65079;Laerm;52655;52.218;5.964;2023-05-10T11:52:09;47.8;38.9;57.8;;
65079;Laerm;52655;52.218;5.964;2023-05-10T11:54:09;46.4;37.6;57.9;;
65079;Laerm;52655;52.218;5.964;2023-05-10T11:56:05;45.3;36.8;56.9;;
65079;Laerm;52655;52.218;5.964;2023-05-10T11:58:05;46.1;37.2;56.2;;
65079;Laerm;52655;52.218;5.964;2023-05-10T12:00:06;48.6;37.6;61.0;;
65079;Laerm;52655;52.218;5.964;2023-05-10T12:02:05;48.2;38.8;60.0;;
65079;Laerm;52655;52.218;5.964;2023-05-10T12:04:05;50.1;38.9;59.2;;
65079;Laerm;52655;52.218;5.964;2023-05-10T12:06:06;51.7;40.0;64.8;;
65079;Laerm;52655;52.218;5.964;2023-05-10T12:08:10;48.2;39.3;63.0;;
65079;Laerm;52655;52.218;5.964;2023-05-10T12:10:06;55.7;37.1;74.0;;
65079;Laerm;52655;52.218;5.964;2023-05-10T12:12:05;50.7;38.7;64.5;;
65079;Laerm;52655;52.218;5.964;2023-05-10T12:14:06;50.2;40.3;63.0;;
65079;Laerm;52655;52.218;5.964;2023-05-10T12:16:13;48.4;37.5;61.1;;
65079;Laerm;52655;52.218;5.964;2023-05-10T12:18:07;48.7;38.2;60.6;;